createdAt,value
2019-05-05T00:01:00.210Z,89.20
2019-05-05T00:03:44.546Z,89.50
2019-05-05T00:06:14.710Z,89.90
2019-05-05T00:08:45.541Z,90.00
2019-05-05T00:11:35.008Z,90.00
2019-05-05T00:14:09.994Z,90.10
2019-05-05T00:16:50.362Z,90.20
2019-05-05T00:19:30.666Z,90.30
2019-05-05T00:21:49.986Z,90.40
2019-05-05T00:24:18.928Z,90.50
2019-05-05T00:26:47.633Z,90.70
2019-05-05T00:29:16.590Z,91.10
2019-05-05T00:31:45.472Z,90.80
2019-05-05T00:34:15.307Z,90.90
2019-05-05T00:36:44.704Z,90.90
2019-05-05T00:39:14.987Z,91.00
2019-05-05T00:41:44.916Z,91.00
2019-05-05T00:44:15.362Z,91.00
2019-05-05T00:47:02.390Z,91.10
2019-05-05T00:49:45.518Z,91.20
2019-05-05T00:52:04.932Z,91.20
2019-05-05T00:54:34.705Z,91.20
2019-05-05T00:57:04.431Z,91.30
2019-05-05T00:59:34.759Z,91.30
2019-05-05T01:02:24.945Z,91.30
2019-05-05T01:05:06.106Z,91.40
2019-05-05T01:07:35.180Z,91.40
2019-05-05T01:10:04.988Z,91.40
2019-05-05T01:12:34.866Z,91.50
2019-05-05T01:15:04.595Z,91.50
2019-05-05T01:17:34.531Z,91.60
2019-05-05T01:20:06.614Z,91.70
2019-05-05T01:22:34.583Z,91.70
2019-05-05T01:25:05.395Z,91.70
2019-05-05T01:27:34.800Z,91.80
2019-05-05T01:30:04.785Z,91.70
2019-05-05T01:32:37.346Z,91.80
2019-05-05T01:35:06.534Z,91.90
2019-05-05T01:37:46.440Z,91.90
2019-05-05T01:40:41.157Z,92.00
2019-05-05T01:43:10.170Z,92.10
2019-05-05T01:45:38.922Z,92.10
2019-05-05T01:48:07.858Z,92.20
2019-05-05T01:50:36.853Z,92.10
2019-05-05T01:53:05.613Z,92.40
2019-05-05T01:55:34.807Z,92.10
2019-05-05T01:58:04.729Z,92.20
2019-05-05T02:00:34.819Z,92.20
2019-05-05T02:03:04.530Z,92.20
2019-05-05T02:05:34.887Z,92.20
2019-05-05T02:08:05.015Z,92.30
2019-05-05T02:10:34.902Z,92.40
2019-05-05T02:13:04.753Z,92.40
2019-05-05T02:15:34.336Z,92.40
2019-05-05T02:18:04.554Z,92.50
2019-05-05T02:20:41.612Z,92.60
2019-05-05T02:23:12.329Z,92.70
2019-05-05T02:25:41.382Z,92.80
2019-05-05T02:28:11.191Z,92.80
2019-05-05T02:30:46.842Z,92.90
2019-05-05T02:33:15.838Z,93.00
2019-05-05T02:35:45.817Z,93.00
2019-05-05T02:38:15.664Z,93.00
2019-05-05T02:40:45.365Z,93.10
2019-05-05T02:43:15.272Z,93.10
2019-05-05T02:46:16.024Z,93.30
2019-05-05T02:48:46.977Z,93.50
2019-05-05T02:51:16.679Z,93.60
2019-05-05T02:53:48.429Z,93.80
2019-05-05T02:56:23.826Z,93.80
2019-05-05T02:58:55.565Z,93.90
2019-05-05T03:01:36.037Z,93.80
2019-05-05T03:04:05.588Z,94.20
2019-05-05T03:06:35.329Z,94.00
2019-05-05T03:09:05.459Z,94.10
2019-05-05T03:11:35.401Z,94.20
2019-05-05T03:14:07.492Z,94.20
2019-05-05T03:16:38.451Z,94.30
2019-05-05T03:19:08.830Z,94.30
2019-05-05T03:21:38.359Z,94.40
2019-05-05T03:24:08.268Z,94.50
2019-05-05T03:26:37.395Z,94.60
2019-05-05T03:29:08.592Z,94.60
2019-05-05T03:31:38.555Z,94.60
2019-05-05T03:34:07.583Z,94.60
2019-05-05T03:36:36.459Z,95.00
2019-05-05T03:39:06.902Z,94.60
2019-05-05T03:41:43.817Z,94.60
2019-05-05T03:44:24.126Z,94.60
2019-05-05T03:46:54.339Z,94.20
2019-05-05T03:49:24.368Z,93.50
2019-05-05T03:51:54.339Z,92.90
2019-05-05T03:54:23.947Z,92.20
2019-05-05T03:57:07.772Z,91.30
2019-05-05T03:59:39.095Z,90.30
2019-05-05T04:02:25.735Z,88.30
2019-05-05T04:04:55.575Z,85.70
2019-05-05T04:07:24.823Z,82.80
2019-05-05T04:09:54.348Z,81.10
2019-05-05T04:12:24.138Z,78.90
2019-05-05T04:14:54.570Z,77.40
2019-05-05T04:17:48.026Z,74.70
2019-05-05T04:20:45.009Z,72.00
2019-05-05T04:23:14.319Z,69.40
2019-05-05T04:25:43.952Z,66.20
2019-05-05T04:28:13.605Z,64.00
2019-05-05T04:30:44.491Z,61.70
2019-05-05T04:33:14.531Z,60.30
2019-05-05T04:35:44.449Z,58.80
2019-05-05T04:38:14.011Z,57.30
2019-05-05T04:40:43.570Z,56.00
2019-05-05T04:43:14.350Z,54.30
2019-05-05T04:45:45.620Z,53.00
2019-05-05T04:48:20.211Z,51.80
2019-05-05T04:50:59.163Z,51.20
2019-05-05T04:53:36.834Z,50.20
2019-05-05T04:56:05.718Z,48.90
2019-05-05T04:58:34.518Z,47.80
2019-05-05T05:01:04.693Z,46.10
2019-05-05T05:03:51.857Z,46.60
2019-05-05T05:06:34.090Z,45.60
2019-05-05T05:09:04.032Z,44.90
2019-05-05T05:11:33.655Z,44.50
2019-05-05T05:14:03.856Z,43.40
2019-05-05T05:16:35.691Z,42.60
2019-05-05T05:19:04.556Z,41.80
2019-05-05T05:21:34.237Z,40.90
2019-05-05T05:24:04.009Z,40.30
2019-05-05T05:26:33.578Z,40.50
2019-05-05T05:29:04.451Z,41.60
2019-05-05T05:31:33.723Z,41.70
2019-05-05T05:34:04.424Z,41.10
2019-05-05T05:36:33.842Z,40.90
2019-05-05T05:39:08.905Z,39.80
2019-05-05T05:41:44.511Z,39.80
2019-05-05T05:44:20.838Z,37.90
2019-05-05T05:46:54.994Z,38.30
2019-05-05T05:49:36.518Z,36.70
2019-05-05T05:52:13.534Z,35.90
2019-05-05T05:54:36.268Z,36.20
2019-05-05T05:57:05.242Z,35.80
2019-05-05T05:59:37.388Z,35.20
2019-05-05T06:02:11.733Z,35.30
2019-05-05T06:04:36.820Z,35.20
2019-05-05T06:07:06.326Z,34.60
2019-05-05T06:09:35.420Z,36.50
2019-05-05T06:12:04.999Z,37.00
2019-05-05T06:14:34.280Z,36.00
2019-05-05T06:17:04.249Z,34.10
2019-05-05T06:19:33.739Z,33.40
2019-05-05T06:22:03.545Z,33.70
2019-05-05T06:24:34.645Z,35.50
2019-05-05T06:27:03.871Z,36.50
2019-05-05T06:29:34.500Z,36.80
2019-05-05T06:32:04.088Z,37.20
2019-05-05T06:34:33.857Z,37.20
2019-05-05T06:37:04.260Z,35.50
2019-05-05T06:39:33.560Z,34.70
2019-05-05T06:42:11.212Z,34.30
2019-05-05T06:44:51.095Z,33.10
2019-05-05T06:47:23.645Z,32.20
2019-05-05T06:49:54.189Z,31.40
2019-05-05T06:52:24.842Z,30.80
2019-05-05T06:54:54.260Z,30.00
2019-05-05T06:57:24.072Z,29.50
2019-05-05T06:59:54.433Z,29.20
2019-05-05T07:02:23.768Z,29.40
2019-05-05T07:04:54.498Z,28.80
2019-05-05T07:07:23.674Z,28.80
2019-05-05T07:09:54.277Z,29.20
2019-05-05T07:12:24.179Z,29.10
2019-05-05T07:14:53.802Z,28.30
2019-05-05T07:17:24.534Z,28.10
2019-05-05T07:19:54.390Z,27.90
2019-05-05T07:22:24.402Z,27.30
2019-05-05T07:24:54.171Z,26.90
2019-05-05T07:27:26.545Z,26.10
2019-05-05T07:29:55.648Z,26.00
2019-05-05T07:32:24.713Z,25.60
2019-05-05T07:35:18.843Z,26.10
2019-05-05T07:37:47.891Z,26.00
2019-05-05T07:40:17.150Z,25.10
2019-05-05T07:42:46.171Z,25.20
2019-05-05T07:45:22.479Z,25.50
2019-05-05T07:47:47.353Z,26.30
2019-05-05T07:50:28.526Z,26.50
2019-05-05T07:52:46.690Z,25.70
2019-05-05T07:55:15.472Z,25.50
2019-05-05T07:57:44.218Z,26.30
2019-05-05T08:00:14.771Z,26.90
2019-05-05T08:02:43.976Z,26.00
2019-05-05T08:05:14.143Z,25.80
2019-05-05T08:07:44.699Z,26.10
2019-05-05T08:10:13.822Z,25.70
2019-05-05T08:12:43.648Z,25.00
2019-05-05T08:15:14.811Z,24.60
2019-05-05T08:18:01.422Z,25.10
2019-05-05T08:20:35.915Z,24.80
2019-05-05T08:23:07.963Z,25.50
2019-05-05T08:25:53.977Z,24.80
2019-05-05T08:28:26.747Z,24.30
2019-05-05T08:31:06.839Z,24.80
2019-05-05T08:33:35.509Z,23.90
2019-05-05T08:36:04.725Z,23.80
2019-05-05T08:38:34.733Z,24.00
2019-05-05T08:41:04.594Z,23.60
2019-05-05T08:43:34.831Z,25.60
2019-05-05T08:46:04.902Z,28.70
2019-05-05T08:48:34.207Z,30.60
2019-05-05T08:51:04.897Z,29.20
2019-05-05T08:53:44.019Z,27.00
2019-05-05T08:56:04.216Z,26.50
2019-05-05T08:58:34.453Z,27.70
2019-05-05T09:01:04.737Z,29.40
2019-05-05T09:03:33.702Z,30.00
2019-05-05T09:06:04.733Z,29.70
2019-05-05T09:08:34.742Z,27.90
2019-05-05T09:11:04.721Z,27.90
2019-05-05T09:13:34.149Z,27.20
2019-05-05T09:16:03.731Z,26.00
2019-05-05T09:18:33.963Z,23.20
2019-05-05T09:21:04.376Z,23.70
2019-05-05T09:23:35.248Z,22.10
2019-05-05T09:26:23.959Z,21.70
2019-05-05T09:29:15.030Z,21.80
2019-05-05T09:31:45.215Z,23.50
2019-05-05T09:34:14.634Z,25.20
2019-05-05T09:36:44.067Z,27.70
2019-05-05T09:39:13.806Z,28.10
2019-05-05T09:41:44.443Z,26.00
2019-05-05T09:44:13.593Z,25.50
2019-05-05T09:46:44.511Z,24.60
2019-05-05T09:49:14.115Z,25.40
2019-05-05T09:51:45.278Z,26.60
2019-05-05T09:54:16.773Z,27.40
2019-05-05T09:56:44.523Z,26.40
2019-05-05T09:59:13.597Z,26.00
2019-05-05T10:01:44.439Z,25.50
2019-05-05T10:04:13.821Z,25.30
2019-05-05T10:06:45.735Z,27.10
2019-05-05T10:09:13.890Z,28.50
2019-05-05T10:11:44.808Z,29.90
2019-05-05T10:14:14.394Z,31.00
2019-05-05T10:16:43.368Z,31.70
2019-05-05T10:19:13.901Z,32.60
2019-05-05T10:21:44.426Z,33.30
2019-05-05T10:24:28.499Z,33.90
2019-05-05T10:26:50.911Z,31.40
2019-05-05T10:29:19.811Z,32.70
2019-05-05T10:31:48.619Z,33.50
2019-05-05T10:34:18.431Z,32.30
2019-05-05T10:36:47.085Z,32.30
2019-05-05T10:39:26.895Z,32.80
2019-05-05T10:41:56.172Z,32.00
2019-05-05T10:44:24.969Z,31.20
2019-05-05T10:46:53.995Z,30.70
2019-05-05T10:49:24.429Z,31.30
2019-05-05T10:51:54.312Z,31.10
2019-05-05T10:54:23.749Z,32.60
2019-05-05T10:56:52.515Z,32.90
2019-05-05T10:59:23.668Z,33.60
2019-05-05T11:01:53.892Z,32.30
2019-05-05T11:04:24.357Z,30.10
2019-05-05T11:06:54.638Z,31.60
2019-05-05T11:09:24.513Z,31.70
2019-05-05T11:11:53.303Z,31.80
2019-05-05T11:14:22.267Z,31.80
2019-05-05T11:16:51.057Z,31.60
2019-05-05T11:19:19.902Z,31.30
2019-05-05T11:21:48.591Z,31.10
2019-05-05T11:24:17.295Z,31.40
2019-05-05T11:26:46.210Z,32.00
2019-05-05T11:29:15.327Z,33.50
2019-05-05T11:31:44.674Z,34.90
2019-05-05T11:34:26.139Z,35.60
2019-05-05T11:37:05.146Z,34.90
2019-05-05T11:39:34.066Z,34.40
2019-05-05T11:42:04.409Z,32.90
2019-05-05T11:44:33.609Z,32.70
2019-05-05T11:47:03.653Z,34.20
2019-05-05T11:49:33.758Z,33.00
2019-05-05T11:52:04.602Z,32.40
2019-05-05T11:54:33.439Z,32.50
2019-05-05T11:57:03.779Z,32.00
2019-05-05T11:59:33.018Z,32.50
2019-05-05T12:02:03.817Z,33.30
2019-05-05T12:04:32.368Z,33.20
2019-05-05T12:07:01.404Z,32.20
2019-05-05T12:09:39.908Z,32.60
2019-05-05T12:12:08.595Z,31.40
2019-05-05T12:14:37.363Z,33.40
2019-05-05T12:17:06.089Z,34.40
2019-05-05T12:19:34.896Z,35.20
2019-05-05T12:22:03.570Z,35.40
2019-05-05T12:24:35.322Z,35.70
2019-05-05T12:27:21.935Z,36.70
2019-05-05T12:29:57.764Z,36.50
2019-05-05T12:32:27.055Z,35.70
2019-05-05T12:34:55.721Z,34.00
2019-05-05T12:37:25.762Z,33.60
2019-05-05T12:39:54.858Z,33.80
2019-05-05T12:42:24.211Z,33.90
2019-05-05T12:44:58.936Z,33.80
2019-05-05T12:47:46.822Z,33.30
2019-05-05T12:50:15.895Z,32.80
2019-05-05T12:52:44.558Z,32.20
2019-05-05T12:55:14.278Z,32.20
2019-05-05T12:57:43.590Z,31.90
2019-05-05T13:00:14.648Z,32.20
2019-05-05T13:02:44.186Z,31.80
2019-05-05T13:05:14.453Z,32.00
2019-05-05T13:07:44.157Z,31.50
2019-05-05T13:10:16.067Z,31.60
2019-05-05T13:12:44.735Z,31.40
2019-05-05T13:15:14.386Z,31.70
2019-05-05T13:17:43.791Z,31.00
2019-05-05T13:20:24.576Z,30.70
2019-05-05T13:23:04.708Z,31.50
2019-05-05T13:25:58.963Z,32.50
2019-05-05T13:28:26.102Z,32.70
2019-05-05T13:30:55.003Z,34.30
2019-05-05T13:33:24.672Z,33.70
2019-05-05T13:35:53.852Z,33.40
2019-05-05T13:38:23.935Z,33.30
2019-05-05T13:40:54.418Z,32.80
2019-05-05T13:43:24.210Z,33.10
2019-05-05T13:46:07.926Z,32.70
2019-05-05T13:48:37.487Z,33.00
2019-05-05T13:51:06.930Z,33.60
2019-05-05T13:53:35.622Z,34.20
2019-05-05T13:56:11.914Z,34.40
2019-05-05T13:58:36.622Z,34.60
2019-05-05T14:01:05.538Z,34.20
2019-05-05T14:03:34.536Z,33.80
2019-05-05T14:06:04.742Z,34.00
2019-05-05T14:08:36.257Z,33.80
2019-05-05T14:11:04.318Z,33.10
2019-05-05T14:13:34.196Z,32.80
2019-05-05T14:16:03.901Z,33.10
2019-05-05T14:18:32.815Z,34.90
2019-05-05T14:21:02.010Z,35.10
2019-05-05T14:23:34.420Z,34.40
2019-05-05T14:26:03.869Z,33.50
2019-05-05T14:28:34.043Z,32.80
2019-05-05T14:31:14.827Z,33.10
2019-05-05T14:33:58.570Z,31.80
2019-05-05T14:36:49.695Z,31.80
2019-05-05T14:39:19.538Z,32.10
2019-05-05T14:41:48.210Z,31.20
2019-05-05T14:44:17.243Z,31.10
2019-05-05T14:46:46.011Z,30.40
2019-05-05T14:49:14.713Z,31.40
2019-05-05T14:51:44.669Z,31.70
2019-05-05T14:54:14.881Z,31.80
2019-05-05T14:56:44.177Z,31.70
2019-05-05T14:59:14.256Z,32.10
2019-05-05T15:01:44.688Z,33.00
2019-05-05T15:04:15.339Z,33.70
2019-05-05T15:07:09.038Z,34.00
2019-05-05T15:09:50.838Z,34.00
2019-05-05T15:12:24.119Z,34.00
2019-05-05T15:14:54.654Z,34.20
2019-05-05T15:17:24.659Z,33.90
2019-05-05T15:19:54.104Z,33.90
2019-05-05T15:22:23.893Z,33.50
2019-05-05T15:24:53.640Z,33.70
2019-05-05T15:27:24.242Z,34.00
2019-05-05T15:29:54.269Z,34.40
2019-05-05T15:32:24.059Z,34.90
2019-05-05T15:34:54.576Z,35.60
2019-05-05T15:37:23.808Z,36.00
2019-05-05T15:39:53.605Z,36.10
2019-05-05T15:42:22.742Z,36.00
2019-05-05T15:44:51.430Z,36.50
2019-05-05T15:47:20.162Z,36.40
2019-05-05T15:49:49.239Z,36.30
2019-05-05T15:52:20.177Z,36.20
2019-05-05T15:54:48.582Z,36.00
2019-05-05T15:57:18.268Z,36.00
2019-05-05T15:59:47.386Z,36.00
2019-05-05T16:02:16.093Z,36.20
2019-05-05T16:04:45.358Z,36.20
2019-05-05T16:07:14.300Z,35.70
2019-05-05T16:09:46.502Z,36.30
2019-05-05T16:12:14.400Z,36.20
2019-05-05T16:14:54.326Z,36.20
2019-05-05T16:17:33.437Z,35.60
2019-05-05T16:20:06.307Z,35.10
2019-05-05T16:22:54.170Z,34.90
2019-05-05T16:25:23.024Z,35.30
2019-05-05T16:27:52.101Z,35.40
2019-05-05T16:30:23.436Z,35.80
2019-05-05T16:32:54.969Z,36.30
2019-05-05T16:35:23.760Z,36.40
2019-05-05T16:37:52.606Z,36.30
2019-05-05T16:40:23.240Z,36.20
2019-05-05T16:42:51.866Z,36.30
2019-05-05T16:45:21.075Z,36.20
2019-05-05T16:47:49.772Z,36.20
2019-05-05T16:50:20.688Z,36.60
2019-05-05T16:53:00.764Z,36.70
2019-05-05T16:55:34.550Z,36.80
2019-05-05T16:58:06.899Z,36.40
2019-05-05T17:00:37.170Z,36.40
2019-05-05T17:03:05.897Z,36.40
2019-05-05T17:05:35.311Z,36.40
2019-05-05T17:08:05.813Z,36.70
2019-05-05T17:10:34.642Z,36.70
2019-05-05T17:13:15.402Z,36.80
2019-05-05T17:15:59.174Z,36.50
2019-05-05T17:18:45.757Z,36.90
2019-05-05T17:21:18.039Z,37.10
2019-05-05T17:23:46.725Z,37.30
2019-05-05T17:26:15.768Z,37.80
2019-05-05T17:28:44.485Z,37.60
2019-05-05T17:31:13.386Z,38.00
2019-05-05T17:33:44.072Z,38.40
2019-05-05T17:36:14.020Z,38.30
2019-05-05T17:38:43.736Z,38.80
2019-05-05T17:41:34.129Z,39.20
2019-05-05T17:44:09.873Z,39.20
2019-05-05T17:46:44.513Z,39.60
2019-05-05T17:49:26.978Z,39.80
2019-05-05T17:52:18.775Z,41.00
2019-05-05T17:54:53.956Z,40.40
2019-05-05T17:57:23.672Z,40.60
2019-05-05T17:59:53.590Z,40.80
2019-05-05T18:02:23.698Z,41.10
2019-05-05T18:04:54.104Z,41.80
2019-05-05T18:07:32.139Z,41.70
2019-05-05T18:10:07.719Z,42.00
2019-05-05T18:12:51.495Z,42.50
2019-05-05T18:15:37.742Z,42.60
2019-05-05T18:18:06.507Z,42.80
2019-05-05T18:20:35.231Z,43.00
2019-05-05T18:23:03.911Z,43.40
2019-05-05T18:25:34.215Z,43.70
2019-05-05T18:28:16.251Z,43.80
2019-05-05T18:30:33.588Z,43.70
2019-05-05T18:33:04.073Z,43.70
2019-05-05T18:35:33.929Z,44.00
2019-05-05T18:38:04.064Z,44.20
2019-05-05T18:40:33.704Z,44.50
2019-05-05T18:43:05.619Z,44.60
2019-05-05T18:45:35.560Z,44.90
2019-05-05T18:48:04.591Z,45.00
2019-05-05T18:50:33.988Z,45.40
2019-05-05T18:53:04.634Z,45.50
2019-05-05T18:55:33.924Z,45.60
2019-05-05T18:58:04.975Z,45.80
2019-05-05T19:01:01.642Z,45.90
2019-05-05T19:03:34.471Z,46.20
2019-05-05T19:06:24.042Z,46.30
2019-05-05T19:08:56.957Z,46.60
2019-05-05T19:11:24.962Z,46.60
2019-05-05T19:13:54.161Z,46.90
2019-05-05T19:16:23.762Z,46.90
2019-05-05T19:18:55.409Z,46.90
2019-05-05T19:21:30.666Z,47.20
2019-05-05T19:23:59.566Z,47.20
2019-05-05T19:26:28.347Z,47.10
2019-05-05T19:28:57.682Z,47.20
2019-05-05T19:31:26.497Z,47.40
2019-05-05T19:33:55.866Z,47.60
2019-05-05T19:36:27.385Z,47.80
2019-05-05T19:38:55.381Z,47.90
2019-05-05T19:41:24.133Z,48.30
2019-05-05T19:43:54.731Z,49.30
2019-05-05T19:46:44.014Z,48.70
2019-05-05T19:49:17.226Z,49.20
2019-05-05T19:51:46.668Z,49.80
2019-05-05T19:54:15.758Z,50.00
2019-05-05T19:56:44.915Z,50.20
2019-05-05T19:59:13.897Z,50.70
2019-05-05T20:01:44.740Z,50.70
2019-05-05T20:04:14.621Z,51.00
2019-05-05T20:06:44.416Z,50.80
2019-05-05T20:09:14.208Z,51.40
2019-05-05T20:11:43.817Z,51.00
2019-05-05T20:14:15.162Z,51.60
2019-05-05T20:17:04.237Z,51.40
2019-05-05T20:19:37.062Z,51.80
2019-05-05T20:22:05.915Z,51.80
2019-05-05T20:24:34.884Z,52.00
2019-05-05T20:27:04.504Z,52.30
2019-05-05T20:29:36.763Z,52.40
2019-05-05T20:32:04.396Z,52.90
2019-05-05T20:34:44.470Z,52.90
2019-05-05T20:37:15.394Z,53.10
2019-05-05T20:39:44.245Z,53.20
2019-05-05T20:42:14.873Z,53.30
2019-05-05T20:44:43.848Z,53.30
2019-05-05T20:47:12.650Z,52.90
2019-05-05T20:49:41.300Z,52.70
2019-05-05T20:52:10.246Z,52.20
2019-05-05T20:54:38.920Z,52.20
2019-05-05T20:57:07.611Z,51.90
2019-05-05T20:59:36.799Z,51.80
2019-05-05T21:02:05.479Z,51.70
2019-05-05T21:04:34.649Z,51.70
2019-05-05T21:07:04.507Z,52.00
2019-05-05T21:09:34.474Z,52.40
2019-05-05T21:12:04.705Z,51.80
2019-05-05T21:14:37.237Z,51.70
2019-05-05T21:17:05.119Z,51.50
2019-05-05T21:19:34.618Z,51.60
2019-05-05T21:22:22.563Z,51.60
2019-05-05T21:24:51.595Z,51.30
2019-05-05T21:27:21.990Z,51.70
2019-05-05T21:29:50.686Z,51.60
2019-05-05T21:32:19.352Z,51.60
2019-05-05T21:34:48.037Z,51.60
2019-05-05T21:37:16.762Z,51.60
2019-05-05T21:39:45.686Z,51.70
2019-05-05T21:42:14.343Z,51.80
2019-05-05T21:44:44.219Z,51.80
2019-05-05T21:47:14.167Z,52.10
2019-05-05T21:49:43.047Z,52.20
2019-05-05T21:52:34.606Z,52.40
2019-05-05T21:55:28.710Z,52.60
2019-05-05T21:58:07.827Z,52.90
2019-05-05T22:00:54.788Z,53.40
2019-05-05T22:03:30.671Z,53.70
2019-05-05T22:05:59.470Z,54.20
2019-05-05T22:08:28.142Z,54.60
2019-05-05T22:10:57.085Z,55.00
2019-05-05T22:13:25.968Z,55.30
2019-05-05T22:15:54.714Z,56.50
2019-05-05T22:18:24.407Z,56.30
2019-05-05T22:20:59.595Z,56.50
2019-05-05T22:23:28.266Z,56.90
2019-05-05T22:25:57.035Z,57.20
2019-05-05T22:28:26.546Z,57.60
2019-05-05T22:30:55.592Z,57.80
2019-05-05T22:33:24.791Z,58.10
2019-05-05T22:35:54.842Z,58.30
2019-05-05T22:38:24.552Z,58.60
2019-05-05T22:40:54.565Z,58.60
2019-05-05T22:43:23.904Z,58.90
2019-05-05T22:45:54.151Z,59.10
2019-05-05T22:48:24.003Z,59.40
2019-05-05T22:50:54.495Z,59.50
2019-05-05T22:53:24.042Z,59.70
2019-05-05T22:55:53.257Z,60.10
2019-05-05T22:58:23.887Z,60.10
2019-05-05T23:00:54.678Z,60.60
2019-05-05T23:03:35.175Z,60.90
2019-05-05T23:06:10.351Z,61.40
2019-05-05T23:08:39.016Z,61.50
2019-05-05T23:11:08.080Z,62.10
2019-05-05T23:13:36.960Z,62.40
2019-05-05T23:16:14.631Z,62.80
2019-05-05T23:18:44.270Z,63.60
2019-05-05T23:21:26.495Z,64.20
2019-05-05T23:24:14.307Z,65.00
2019-05-05T23:26:43.958Z,65.60
2019-05-05T23:29:12.789Z,66.40
2019-05-05T23:31:41.538Z,67.20
2019-05-05T23:34:10.394Z,67.60
2019-05-05T23:36:39.255Z,68.50
2019-05-05T23:39:08.376Z,69.20
2019-05-05T23:41:37.675Z,70.10
2019-05-05T23:44:06.462Z,71.00
2019-05-05T23:46:35.408Z,71.50
2019-05-05T23:49:04.645Z,72.00
2019-05-05T23:51:34.682Z,72.80
2019-05-05T23:54:04.303Z,73.50
2019-05-05T23:56:34.959Z,73.90
2019-05-05T23:59:04.343Z,74.20
